BAW9513 KJFK-EGLL
Flight info
| Callsign | BAW9513 |
|---|---|
| Flight time | N/A |
| Altitude | 31000 |
| Route | GREKI DCT JUDDS DCT NELIE DCT TOPPS N759A KODIK DCT H5550 DCT H5640 DCT H5630 DCT H5520 DCT VENER DCT KOKIB DCT BOFUM Q37 MALUD Q38 NUGRA DCT TOBID DCT WEZKO DCT BNN |
| Aircraft | B742/H-SDFHIWY/S |
Departure
| Time | 2026-04-30 09:32 |
|---|---|
| Airport | John F. Kennedy International Airport (KJFK) |
Arrival
| Time | N/A |
|---|---|
| Airport | London Heathrow Airport (EGLL) |
| Time | Latitude | Longitude | Altitude | Speed | Heading |
|---|---|---|---|---|---|
| 2026-04-30 09:03 | 40.65120 | -73.78361 | 16 ft | 0 kts | 156° |
| 2026-04-30 09:19 | 40.65125 | -73.78365 | 16 ft | 3 kts | 153° |
| 2026-04-30 09:19 | 40.65137 | -73.78378 | 16 ft | 2 kts | 124° |
| 2026-04-30 09:19 | 40.65144 | -73.78396 | 16 ft | 2 kts | 105° |
| 2026-04-30 09:19 | 40.65145 | -73.78416 | 16 ft | 2 kts | 84° |
| 2026-04-30 09:20 | 40.65142 | -73.78435 | 16 ft | 2 kts | 64° |
| 2026-04-30 09:20 | 40.65134 | -73.78451 | 16 ft | 2 kts | 45° |
| 2026-04-30 09:20 | 40.65122 | -73.78462 | 16 ft | 1 kts | 25° |
| 2026-04-30 09:20 | 40.65118 | -73.78464 | 16 ft | 0 kts | 21° |
| 2026-04-30 09:25 | 40.65120 | -73.78463 | 16 ft | 1 kts | 21° |
| 2026-04-30 09:26 | 40.65126 | -73.78460 | 16 ft | 0 kts | 21° |
| 2026-04-30 09:26 | 40.65151 | -73.78447 | 16 ft | 7 kts | 22° |
| 2026-04-30 09:26 | 40.65212 | -73.78413 | 16 ft | 10 kts | 26° |
| 2026-04-30 09:26 | 40.65246 | -73.78343 | 16 ft | 10 kts | 103° |
| 2026-04-30 09:27 | 40.65206 | -73.78246 | 16 ft | 14 kts | 122° |
| 2026-04-30 09:27 | 40.65148 | -73.78121 | 16 ft | 18 kts | 121° |
| 2026-04-30 09:27 | 40.65083 | -73.77978 | 16 ft | 17 kts | 121° |
| 2026-04-30 09:27 | 40.65026 | -73.77850 | 16 ft | 14 kts | 120° |
| 2026-04-30 09:28 | 40.64973 | -73.77735 | 16 ft | 15 kts | 121° |
| 2026-04-30 09:28 | 40.64908 | -73.77594 | 16 ft | 19 kts | 122° |
| 2026-04-30 09:28 | 40.64840 | -73.77445 | 16 ft | 19 kts | 119° |
| 2026-04-30 09:28 | 40.64774 | -73.77291 | 16 ft | 19 kts | 121° |
| 2026-04-30 09:29 | 40.64790 | -73.77135 | 16 ft | 18 kts | 56° |
| 2026-04-30 09:29 | 40.64860 | -73.77001 | 16 ft | 17 kts | 51° |
| 2026-04-30 09:29 | 40.64921 | -73.76865 | 16 ft | 16 kts | 91° |
| 2026-04-30 09:29 | 40.64878 | -73.76727 | 16 ft | 16 kts | 83° |
| 2026-04-30 09:30 | 40.64958 | -73.76630 | 16 ft | 17 kts | 33° |
| 2026-04-30 09:30 | 40.65065 | -73.76547 | 16 ft | 18 kts | 33° |
| 2026-04-30 09:30 | 40.65075 | -73.76411 | 16 ft | 15 kts | 117° |
| 2026-04-30 09:30 | 40.65010 | -73.76357 | 16 ft | 8 kts | 216° |
| 2026-04-30 09:31 | 40.65002 | -73.76364 | 16 ft | 0 kts | 215° |
| 2026-04-30 09:31 | 40.64991 | -73.76375 | 16 ft | 8 kts | 214° |
| 2026-04-30 09:31 | 40.64817 | -73.76514 | 16 ft | 55 kts | 210° |
| 2026-04-30 09:31 | 40.64328 | -73.76897 | 16 ft | 106 kts | 211° |
| 2026-04-30 09:32 | 40.63559 | -73.77499 | 17 ft | 151 kts | 210° |
| 2026-04-30 09:32 | 40.62532 | -73.78301 | 79 ft | 182 kts | 210° |
| 2026-04-30 09:32 | 40.61463 | -73.79145 | 521 ft | 181 kts | 211° |
| 2026-04-30 09:32 | 40.60352 | -73.80064 | 787 ft | 196 kts | 211° |
| 2026-04-30 09:33 | 40.59154 | -73.81067 | 1036 ft | 213 kts | 211° |
| 2026-04-30 09:33 | 40.57885 | -73.82132 | 1445 ft | 221 kts | 211° |
| 2026-04-30 09:33 | 40.56585 | -73.83231 | 1733 ft | 224 kts | 211° |
| 2026-04-30 09:33 | 40.55246 | -73.84338 | 1906 ft | 232 kts | 203° |
| 2026-04-30 09:34 | 40.53652 | -73.84644 | 2097 ft | 239 kts | 168° |
| 2026-04-30 09:34 | 40.52153 | -73.83647 | 2285 ft | 253 kts | 135° |
| 2026-04-30 09:34 | 40.51266 | -73.81599 | 2562 ft | 267 kts | 103° |
| 2026-04-30 09:34 | 40.51345 | -73.79150 | 2971 ft | 275 kts | 72° |
| 2026-04-30 09:35 | 40.52214 | -73.76892 | 3388 ft | 278 kts | 59° |
| 2026-04-30 09:35 | 40.53268 | -73.74777 | 3778 ft | 282 kts | 48° |
| 2026-04-30 09:35 | 40.54875 | -73.73315 | 4134 ft | 284 kts | 16° |
| 2026-04-30 09:35 | 40.56784 | -73.72681 | 4618 ft | 282 kts | 10° |
| 2026-04-30 09:36 | 40.58703 | -73.72068 | 5030 ft | 286 kts | 14° |
| 2026-04-30 09:36 | 40.60606 | -73.71322 | 5469 ft | 288 kts | 16° |
| 2026-04-30 09:36 | 40.62519 | -73.70495 | 5946 ft | 289 kts | 17° |
| 2026-04-30 09:36 | 40.64415 | -73.69648 | 6394 ft | 290 kts | 17° |
| 2026-04-30 09:37 | 40.66331 | -73.68787 | 6749 ft | 295 kts | 16° |
| 2026-04-30 09:37 | 40.68286 | -73.67911 | 7158 ft | 297 kts | 17° |
| 2026-04-30 09:37 | 40.70262 | -73.67024 | 7573 ft | 299 kts | 17° |
| 2026-04-30 09:37 | 40.72221 | -73.66145 | 7941 ft | 303 kts | 17° |
| 2026-04-30 09:38 | 40.74237 | -73.65239 | 8345 ft | 305 kts | 17° |
| 2026-04-30 09:38 | 40.76245 | -73.64336 | 8704 ft | 308 kts | 17° |
| 2026-04-30 09:38 | 40.78281 | -73.63420 | 9108 ft | 309 kts | 17° |
| 2026-04-30 09:38 | 40.80333 | -73.62497 | 9450 ft | 313 kts | 17° |
| 2026-04-30 09:39 | 40.82391 | -73.61569 | 9860 ft | 314 kts | 17° |
| 2026-04-30 09:39 | 40.84453 | -73.60639 | 10208 ft | 316 kts | 17° |
| 2026-04-30 09:39 | 40.86563 | -73.59688 | 10402 ft | 326 kts | 17° |
| 2026-04-30 09:39 | 40.88759 | -73.58697 | 10537 ft | 338 kts | 17° |
| 2026-04-30 09:40 | 40.91002 | -73.57685 | 10675 ft | 350 kts | 17° |
| 2026-04-30 09:40 | 40.93354 | -73.56622 | 10811 ft | 363 kts | 17° |
| 2026-04-30 09:40 | 40.95796 | -73.55517 | 10945 ft | 376 kts | 17° |
| 2026-04-30 09:40 | 40.98303 | -73.54381 | 11078 ft | 390 kts | 17° |
| 2026-04-30 09:41 | 41.00944 | -73.53183 | 11231 ft | 404 kts | 17° |
| 2026-04-30 09:41 | 41.03599 | -73.51977 | 11516 ft | 413 kts | 17° |
| 2026-04-30 09:41 | 41.06348 | -73.50726 | 12087 ft | 414 kts | 17° |
| 2026-04-30 09:41 | 41.09070 | -73.49487 | 12618 ft | 416 kts | 17° |
| 2026-04-30 09:42 | 41.11837 | -73.48226 | 13081 ft | 420 kts | 17° |
| 2026-04-30 09:42 | 41.14602 | -73.46967 | 13567 ft | 422 kts | 17° |
| 2026-04-30 09:42 | 41.17382 | -73.45700 | 13941 ft | 428 kts | 17° |
| 2026-04-30 09:42 | 41.20198 | -73.44415 | 14401 ft | 430 kts | 17° |
| 2026-04-30 09:43 | 41.23038 | -73.43117 | 14857 ft | 433 kts | 16° |
| 2026-04-30 09:43 | 41.25891 | -73.41811 | 15249 ft | 437 kts | 16° |
| 2026-04-30 09:43 | 41.28788 | -73.40485 | 15707 ft | 439 kts | 16° |
| 2026-04-30 09:43 | 41.31698 | -73.39153 | 16079 ft | 443 kts | 16° |
| 2026-04-30 09:44 | 41.34591 | -73.37826 | 16478 ft | 446 kts | 16° |
| 2026-04-30 09:44 | 41.37546 | -73.36470 | 16935 ft | 447 kts | 16° |
| 2026-04-30 09:44 | 41.40480 | -73.35122 | 17298 ft | 451 kts | 16° |
| 2026-04-30 09:44 | 41.43457 | -73.33753 | 17692 ft | 454 kts | 16° |
| 2026-04-30 09:45 | 41.46272 | -73.32277 | 18029 ft | 459 kts | 25° |
| 2026-04-30 09:45 | 41.48987 | -73.29979 | 18391 ft | 465 kts | 36° |
| 2026-04-30 09:45 | 41.51470 | -73.27177 | 18798 ft | 468 kts | 42° |
| 2026-04-30 09:45 | 41.53826 | -73.24149 | 19238 ft | 470 kts | 44° |
| 2026-04-30 09:46 | 41.56132 | -73.21044 | 19604 ft | 473 kts | 45° |
| 2026-04-30 09:46 | 41.58440 | -73.17911 | 19970 ft | 476 kts | 45° |
| 2026-04-30 09:46 | 41.60760 | -73.14780 | 20338 ft | 478 kts | 44° |
| 2026-04-30 09:46 | 41.63113 | -73.11627 | 20737 ft | 480 kts | 44° |
| 2026-04-30 09:47 | 41.65440 | -73.08484 | 21133 ft | 482 kts | 45° |
| 2026-04-30 09:47 | 41.67786 | -73.05291 | 21477 ft | 484 kts | 45° |
| 2026-04-30 09:47 | 41.70144 | -73.02073 | 21848 ft | 486 kts | 45° |
| 2026-04-30 09:47 | 41.72525 | -72.98821 | 22179 ft | 489 kts | 45° |
| 2026-04-30 09:48 | 41.74902 | -72.95571 | 22506 ft | 491 kts | 45° |
| 2026-04-30 09:48 | 41.77294 | -72.92301 | 22854 ft | 493 kts | 45° |
| 2026-04-30 09:48 | 41.79685 | -72.89030 | 23223 ft | 493 kts | 45° |
| 2026-04-30 09:48 | 41.82095 | -72.85730 | 23514 ft | 496 kts | 45° |
| 2026-04-30 09:49 | 41.84497 | -72.82437 | 23837 ft | 497 kts | 45° |
| 2026-04-30 09:49 | 41.86917 | -72.79115 | 24138 ft | 499 kts | 45° |
| 2026-04-30 09:49 | 41.89348 | -72.75776 | 24422 ft | 501 kts | 45° |
| 2026-04-30 09:49 | 41.91800 | -72.72401 | 24719 ft | 503 kts | 45° |
| 2026-04-30 09:50 | 41.94230 | -72.69061 | 25023 ft | 504 kts | 45° |
| 2026-04-30 09:50 | 41.96683 | -72.65748 | 25306 ft | 506 kts | 45° |
| 2026-04-30 09:50 | 41.99208 | -72.62373 | 25604 ft | 507 kts | 45° |
| 2026-04-30 09:50 | 42.01687 | -72.59068 | 25900 ft | 508 kts | 45° |
| 2026-04-30 09:51 | 42.04207 | -72.55703 | 26167 ft | 509 kts | 45° |
| 2026-04-30 09:51 | 42.06716 | -72.52344 | 26349 ft | 513 kts | 45° |
| 2026-04-30 09:51 | 42.09226 | -72.48976 | 26612 ft | 513 kts | 45° |
| 2026-04-30 09:51 | 42.11769 | -72.45558 | 26842 ft | 515 kts | 46° |
| 2026-04-30 09:52 | 42.14285 | -72.42170 | 27036 ft | 517 kts | 46° |
| 2026-04-30 09:52 | 42.16857 | -72.38701 | 27277 ft | 518 kts | 46° |
| 2026-04-30 09:52 | 42.19411 | -72.35252 | 27519 ft | 519 kts | 46° |
| 2026-04-30 09:52 | 42.21978 | -72.31782 | 27684 ft | 521 kts | 46° |
| 2026-04-30 09:53 | 42.24525 | -72.28336 | 27890 ft | 522 kts | 47° |
| 2026-04-30 09:53 | 42.27114 | -72.24828 | 28067 ft | 524 kts | 47° |
| 2026-04-30 09:53 | 42.29676 | -72.21352 | 28264 ft | 525 kts | 47° |
| 2026-04-30 09:53 | 42.32283 | -72.17812 | 28389 ft | 528 kts | 47° |
| 2026-04-30 09:54 | 42.34866 | -72.14298 | 28625 ft | 528 kts | 47° |
| 2026-04-30 09:54 | 42.37470 | -72.10752 | 28796 ft | 530 kts | 47° |
| 2026-04-30 09:54 | 42.40042 | -72.07246 | 28985 ft | 531 kts | 47° |
| 2026-04-30 09:54 | 42.42644 | -72.03693 | 29120 ft | 532 kts | 47° |
| 2026-04-30 09:55 | 42.45267 | -72.00108 | 29319 ft | 533 kts | 47° |
| 2026-04-30 09:55 | 42.47847 | -71.96580 | 29505 ft | 534 kts | 47° |
| 2026-04-30 09:55 | 42.50488 | -71.92961 | 29632 ft | 536 kts | 47° |
| 2026-04-30 09:55 | 42.53078 | -71.89408 | 29802 ft | 538 kts | 47° |
| 2026-04-30 09:56 | 42.55726 | -71.85771 | 29954 ft | 539 kts | 47° |
| 2026-04-30 09:56 | 42.58339 | -71.82177 | 30116 ft | 540 kts | 47° |
| 2026-04-30 09:56 | 42.60993 | -71.78522 | 30263 ft | 541 kts | 47° |
| 2026-04-30 09:56 | 42.63620 | -71.74899 | 30394 ft | 542 kts | 47° |
| 2026-04-30 09:57 | 42.66249 | -71.71269 | 30562 ft | 542 kts | 47° |
| 2026-04-30 09:57 | 42.68911 | -71.67590 | 30690 ft | 543 kts | 47° |
| 2026-04-30 09:57 | 42.71533 | -71.63960 | 30811 ft | 542 kts | 46° |
| 2026-04-30 09:57 | 42.74168 | -71.60309 | 30846 ft | 542 kts | 47° |
| 2026-04-30 09:58 | 42.79426 | -71.53007 | 30859 ft | 542 kts | 47° |
| 2026-04-30 09:58 | 42.84690 | -71.45679 | 30863 ft | 541 kts | 47° |
| 2026-04-30 09:59 | 42.95162 | -71.31042 | 30860 ft | 538 kts | 47° |
| 2026-04-30 10:00 | 43.02978 | -71.20066 | 30858 ft | 538 kts | 47° |
| 2026-04-30 10:01 | 43.10770 | -71.09080 | 30861 ft | 538 kts | 47° |
| 2026-04-30 10:02 | 43.18524 | -70.98111 | 30863 ft | 535 kts | 48° |
| 2026-04-30 10:02 | 43.23684 | -70.90786 | 30859 ft | 535 kts | 48° |
| 2026-04-30 10:03 | 43.28845 | -70.83440 | 30863 ft | 536 kts | 48° |
| 2026-04-30 10:03 | 43.34011 | -70.76066 | 30863 ft | 537 kts | 48° |
| 2026-04-30 10:04 | 43.39196 | -70.68646 | 30866 ft | 537 kts | 48° |
| 2026-04-30 10:04 | 43.44334 | -70.61272 | 30865 ft | 537 kts | 48° |
| 2026-04-30 10:05 | 43.49488 | -70.53860 | 30874 ft | 538 kts | 47° |
| 2026-04-30 10:05 | 43.54654 | -70.46411 | 30872 ft | 538 kts | 47° |
| 2026-04-30 10:06 | 43.59823 | -70.38936 | 30875 ft | 537 kts | 47° |
| 2026-04-30 10:06 | 43.64963 | -70.31484 | 30868 ft | 537 kts | 48° |
| 2026-04-30 10:07 | 43.70092 | -70.24028 | 30868 ft | 537 kts | 48° |
| 2026-04-30 10:07 | 43.75213 | -70.16561 | 30876 ft | 538 kts | 48° |
| 2026-04-30 10:08 | 43.80350 | -70.09055 | 30880 ft | 538 kts | 48° |
| 2026-04-30 10:08 | 43.85466 | -70.01557 | 30881 ft | 538 kts | 48° |
| 2026-04-30 10:09 | 43.90590 | -69.94029 | 30893 ft | 537 kts | 48° |
| 2026-04-30 10:09 | 43.95713 | -69.86480 | 30893 ft | 536 kts | 48° |
| 2026-04-30 10:10 | 44.00787 | -69.78983 | 30899 ft | 536 kts | 48° |
| 2026-04-30 10:10 | 44.05890 | -69.71424 | 30900 ft | 535 kts | 48° |
| 2026-04-30 10:11 | 44.10932 | -69.63936 | 30901 ft | 534 kts | 48° |
| 2026-04-30 10:11 | 44.16027 | -69.56349 | 30898 ft | 535 kts | 48° |
| 2026-04-30 10:12 | 44.21084 | -69.48798 | 30898 ft | 534 kts | 48° |
| 2026-04-30 10:12 | 44.26127 | -69.41246 | 30900 ft | 534 kts | 48° |
| 2026-04-30 10:13 | 44.31183 | -69.33655 | 30899 ft | 535 kts | 49° |
| 2026-04-30 10:13 | 44.36220 | -69.26072 | 30894 ft | 536 kts | 49° |
| 2026-04-30 10:14 | 44.41273 | -69.18443 | 30898 ft | 535 kts | 49° |
| 2026-04-30 10:14 | 44.48843 | -69.06977 | 30904 ft | 532 kts | 49° |
| 2026-04-30 10:15 | 44.53811 | -68.99425 | 30906 ft | 531 kts | 49° |
| 2026-04-30 10:15 | 44.58811 | -68.91805 | 30907 ft | 532 kts | 49° |
| 2026-04-30 10:16 | 44.63817 | -68.84152 | 30915 ft | 532 kts | 49° |
| 2026-04-30 10:17 | 44.71294 | -68.72687 | 30923 ft | 533 kts | 49° |
| 2026-04-30 10:17 | 44.78772 | -68.61173 | 30932 ft | 531 kts | 49° |
| 2026-04-30 10:18 | 44.83740 | -68.53497 | 30932 ft | 531 kts | 49° |
| 2026-04-30 10:19 | 44.91163 | -68.41986 | 30935 ft | 531 kts | 49° |
| 2026-04-30 10:19 | 44.96119 | -68.34275 | 30938 ft | 530 kts | 49° |
| 2026-04-30 10:20 | 45.01056 | -68.26572 | 30942 ft | 530 kts | 49° |
| 2026-04-30 10:20 | 45.08448 | -68.14997 | 30955 ft | 529 kts | 49° |
| 2026-04-30 10:21 | 45.13385 | -68.07242 | 30970 ft | 529 kts | 49° |
| 2026-04-30 10:21 | 45.18279 | -67.99531 | 30972 ft | 528 kts | 49° |
| 2026-04-30 10:22 | 45.23163 | -67.91814 | 30972 ft | 527 kts | 49° |
| 2026-04-30 10:22 | 45.28031 | -67.84101 | 30981 ft | 525 kts | 49° |
| 2026-04-30 10:23 | 45.32919 | -67.76410 | 30979 ft | 523 kts | 45° |
| 2026-04-30 10:23 | 45.38478 | -67.69774 | 30982 ft | 525 kts | 36° |
| 2026-04-30 10:24 | 45.44379 | -67.63734 | 30987 ft | 526 kts | 35° |
| 2026-04-30 10:24 | 45.50281 | -67.57692 | 30993 ft | 524 kts | 36° |
| 2026-04-30 10:25 | 45.56168 | -67.51548 | 30993 ft | 524 kts | 36° |
| 2026-04-30 10:25 | 45.62026 | -67.45376 | 30992 ft | 524 kts | 36° |
| 2026-04-30 10:26 | 45.67883 | -67.39184 | 30992 ft | 524 kts | 36° |
| 2026-04-30 10:26 | 45.73702 | -67.33018 | 30993 ft | 523 kts | 37° |
| 2026-04-30 10:27 | 45.79531 | -67.26827 | 30998 ft | 522 kts | 37° |
| 2026-04-30 10:27 | 45.85332 | -67.20651 | 31001 ft | 522 kts | 37° |
| 2026-04-30 10:28 | 45.91166 | -67.14423 | 31006 ft | 520 kts | 37° |
| 2026-04-30 10:28 | 45.96939 | -67.08244 | 31012 ft | 519 kts | 37° |
| 2026-04-30 10:29 | 46.02724 | -67.02035 | 31016 ft | 519 kts | 36° |
| 2026-04-30 10:29 | 46.08497 | -66.95821 | 31017 ft | 521 kts | 36° |
| 2026-04-30 10:30 | 46.14286 | -66.89574 | 31011 ft | 520 kts | 36° |
| 2026-04-30 10:30 | 46.20047 | -66.83343 | 31015 ft | 518 kts | 36° |
| 2026-04-30 10:31 | 46.25787 | -66.77117 | 31015 ft | 518 kts | 36° |
| 2026-04-30 10:31 | 46.31544 | -66.70856 | 31013 ft | 518 kts | 36° |
| 2026-04-30 10:32 | 46.37323 | -66.64552 | 31014 ft | 517 kts | 36° |
| 2026-04-30 10:32 | 46.43037 | -66.58302 | 31016 ft | 517 kts | 36° |
| 2026-04-30 10:33 | 46.48760 | -66.52026 | 31024 ft | 516 kts | 36° |
| 2026-04-30 10:33 | 46.54454 | -66.45763 | 31028 ft | 515 kts | 36° |
| 2026-04-30 10:34 | 46.60142 | -66.39491 | 31023 ft | 514 kts | 36° |
| 2026-04-30 10:34 | 46.65807 | -66.33230 | 31022 ft | 513 kts | 36° |
| 2026-04-30 10:35 | 46.71475 | -66.26948 | 31025 ft | 512 kts | 36° |
| 2026-04-30 10:35 | 46.77145 | -66.20645 | 31033 ft | 513 kts | 36° |
| 2026-04-30 10:36 | 46.82789 | -66.14355 | 31118 ft | 512 kts | 36° |
| 2026-04-30 10:36 | 46.85611 | -66.11201 | 31233 ft | 511 kts | 36° |
| 2026-04-30 10:36 | 46.88429 | -66.08051 | 31347 ft | 509 kts | 36° |
| 2026-04-30 10:37 | 46.91238 | -66.04904 | 31461 ft | 508 kts | 36° |
| 2026-04-30 10:37 | 46.94035 | -66.01768 | 31517 ft | 508 kts | 36° |
| 2026-04-30 10:37 | 46.99616 | -65.95498 | 31615 ft | 507 kts | 36° |
| 2026-04-30 10:38 | 47.05194 | -65.89213 | 31709 ft | 506 kts | 36° |
| 2026-04-30 10:38 | 47.10741 | -65.82947 | 31804 ft | 506 kts | 36° |
| 2026-04-30 10:39 | 47.16302 | -65.76646 | 31908 ft | 505 kts | 36° |
| 2026-04-30 10:39 | 47.21821 | -65.70378 | 32001 ft | 504 kts | 36° |
| 2026-04-30 10:40 | 47.27376 | -65.64050 | 32097 ft | 503 kts | 36° |
| 2026-04-30 10:40 | 47.32856 | -65.57790 | 32189 ft | 502 kts | 36° |
| 2026-04-30 10:41 | 47.38392 | -65.51452 | 32284 ft | 501 kts | 36° |
| 2026-04-30 10:41 | 47.43865 | -65.45168 | 32378 ft | 500 kts | 36° |
| 2026-04-30 10:42 | 47.49342 | -65.38862 | 32478 ft | 500 kts | 36° |
| 2026-04-30 10:42 | 47.54822 | -65.32536 | 32563 ft | 500 kts | 37° |
| 2026-04-30 10:43 | 47.60267 | -65.26231 | 32652 ft | 499 kts | 37° |
| 2026-04-30 10:43 | 47.65719 | -65.19902 | 32744 ft | 498 kts | 37° |
| 2026-04-30 10:44 | 47.71150 | -65.13580 | 32842 ft | 498 kts | 37° |
| 2026-04-30 10:44 | 47.76534 | -65.07297 | 32941 ft | 497 kts | 37° |
| 2026-04-30 10:45 | 47.81969 | -65.00936 | 33041 ft | 497 kts | 37° |
| 2026-04-30 10:45 | 47.87369 | -64.94598 | 33056 ft | 498 kts | 37° |
| 2026-04-30 10:46 | 47.92796 | -64.88212 | 33074 ft | 499 kts | 37° |
| 2026-04-30 10:46 | 47.98239 | -64.81789 | 33076 ft | 500 kts | 37° |
| 2026-04-30 10:47 | 48.03687 | -64.75342 | 33072 ft | 501 kts | 37° |
| 2026-04-30 10:47 | 48.09128 | -64.68887 | 33082 ft | 502 kts | 37° |
| 2026-04-30 10:48 | 48.14588 | -64.62389 | 33080 ft | 503 kts | 37° |
| 2026-04-30 10:48 | 48.20042 | -64.55882 | 33078 ft | 504 kts | 37° |
| 2026-04-30 10:49 | 48.25507 | -64.49343 | 33083 ft | 505 kts | 37° |
| 2026-04-30 10:49 | 48.30975 | -64.42781 | 33092 ft | 505 kts | 38° |
| 2026-04-30 10:50 | 48.36433 | -64.36214 | 33089 ft | 505 kts | 38° |
| 2026-04-30 10:50 | 48.41925 | -64.29582 | 33080 ft | 506 kts | 39° |
| 2026-04-30 10:51 | 48.47383 | -64.22977 | 33079 ft | 506 kts | 39° |
| 2026-04-30 10:51 | 48.52866 | -64.16324 | 33090 ft | 506 kts | 39° |
| 2026-04-30 10:52 | 48.58350 | -64.09647 | 33087 ft | 507 kts | 39° |
| 2026-04-30 10:52 | 48.63814 | -64.02976 | 33094 ft | 508 kts | 39° |
| 2026-04-30 10:53 | 48.69272 | -63.96294 | 33099 ft | 508 kts | 39° |
| 2026-04-30 10:53 | 48.74761 | -63.89556 | 33102 ft | 510 kts | 39° |
| 2026-04-30 10:54 | 48.80238 | -63.82810 | 33098 ft | 511 kts | 39° |
| 2026-04-30 10:54 | 48.85747 | -63.76007 | 33100 ft | 510 kts | 39° |
| 2026-04-30 10:55 | 48.91236 | -63.69208 | 33106 ft | 510 kts | 39° |
| 2026-04-30 10:55 | 48.96690 | -63.62432 | 33104 ft | 510 kts | 39° |
| 2026-04-30 10:56 | 49.02160 | -63.55620 | 33109 ft | 510 kts | 39° |
| 2026-04-30 10:56 | 49.07662 | -63.48745 | 33108 ft | 511 kts | 40° |
| 2026-04-30 10:57 | 49.13153 | -63.41861 | 33113 ft | 513 kts | 40° |
| 2026-04-30 10:57 | 49.18629 | -63.34977 | 33113 ft | 516 kts | 40° |
| 2026-04-30 10:58 | 49.24191 | -63.27964 | 33113 ft | 518 kts | 40° |
| 2026-04-30 10:58 | 49.29731 | -63.20958 | 33120 ft | 520 kts | 40° |
| 2026-04-30 10:59 | 49.35261 | -63.13945 | 33114 ft | 521 kts | 40° |
| 2026-04-30 10:59 | 49.40853 | -63.06831 | 33112 ft | 522 kts | 40° |
| 2026-04-30 11:00 | 49.46425 | -62.99720 | 33110 ft | 523 kts | 40° |
| 2026-04-30 11:00 | 49.51983 | -62.92605 | 33119 ft | 524 kts | 40° |
| 2026-04-30 11:01 | 49.57591 | -62.85404 | 33116 ft | 524 kts | 40° |
| 2026-04-30 11:01 | 49.63155 | -62.78238 | 33132 ft | 525 kts | 40° |
| 2026-04-30 11:02 | 49.68754 | -62.71005 | 33140 ft | 526 kts | 40° |
| 2026-04-30 11:02 | 49.74357 | -62.63744 | 33142 ft | 526 kts | 41° |
| 2026-04-30 11:03 | 49.79937 | -62.56489 | 33145 ft | 527 kts | 40° |
| 2026-04-30 11:04 | 49.88303 | -62.45569 | 33150 ft | 528 kts | 41° |
| 2026-04-30 11:04 | 49.93929 | -62.38198 | 33155 ft | 529 kts | 41° |
| 2026-04-30 11:05 | 49.99503 | -62.30870 | 33157 ft | 529 kts | 41° |
| 2026-04-30 11:05 | 50.05116 | -62.23470 | 33161 ft | 530 kts | 41° |
| 2026-04-30 11:06 | 50.10718 | -62.16058 | 33159 ft | 530 kts | 41° |
| 2026-04-30 11:06 | 50.16314 | -62.08633 | 33167 ft | 531 kts | 41° |
| 2026-04-30 11:07 | 50.21930 | -62.01157 | 33172 ft | 531 kts | 41° |
| 2026-04-30 11:07 | 50.27512 | -61.93700 | 33177 ft | 532 kts | 41° |
| 2026-04-30 11:08 | 50.33144 | -61.86153 | 33177 ft | 533 kts | 41° |
| 2026-04-30 11:08 | 50.38732 | -61.78644 | 33176 ft | 534 kts | 41° |
| 2026-04-30 11:09 | 50.44346 | -61.71072 | 33174 ft | 534 kts | 41° |
| 2026-04-30 11:09 | 50.49984 | -61.63444 | 33167 ft | 535 kts | 41° |
| 2026-04-30 11:10 | 50.55588 | -61.55837 | 33158 ft | 535 kts | 41° |
| 2026-04-30 11:10 | 50.61199 | -61.48196 | 33156 ft | 535 kts | 41° |
| 2026-04-30 11:11 | 50.66803 | -61.40539 | 33163 ft | 536 kts | 41° |
| 2026-04-30 11:11 | 50.72395 | -61.32874 | 33165 ft | 537 kts | 42° |
| 2026-04-30 11:12 | 50.78048 | -61.25100 | 33167 ft | 537 kts | 42° |
| 2026-04-30 11:12 | 50.83664 | -61.17348 | 33168 ft | 538 kts | 42° |
| 2026-04-30 11:13 | 50.89256 | -61.09606 | 33165 ft | 539 kts | 42° |
| 2026-04-30 11:13 | 50.94902 | -61.01763 | 33157 ft | 539 kts | 42° |
| 2026-04-30 11:14 | 51.00514 | -60.93941 | 33155 ft | 540 kts | 42° |
| 2026-04-30 11:14 | 51.06110 | -60.86113 | 33162 ft | 541 kts | 42° |
| 2026-04-30 11:15 | 51.11748 | -60.78201 | 33172 ft | 541 kts | 42° |
| 2026-04-30 11:15 | 51.17384 | -60.70267 | 33176 ft | 540 kts | 42° |
| 2026-04-30 11:16 | 51.22952 | -60.62400 | 33166 ft | 540 kts | 42° |
| 2026-04-30 11:16 | 51.28572 | -60.54434 | 33163 ft | 541 kts | 42° |
| 2026-04-30 11:17 | 51.34151 | -60.46498 | 33159 ft | 541 kts | 42° |
| 2026-04-30 11:17 | 51.39748 | -60.38509 | 33156 ft | 541 kts | 42° |
| 2026-04-30 11:18 | 51.45359 | -60.30472 | 33154 ft | 541 kts | 43° |
| 2026-04-30 11:18 | 51.53730 | -60.18431 | 33157 ft | 541 kts | 43° |
| 2026-04-30 11:19 | 51.59298 | -60.10389 | 33159 ft | 542 kts | 43° |
| 2026-04-30 11:19 | 51.64897 | -60.02273 | 33159 ft | 543 kts | 43° |
| 2026-04-30 11:20 | 51.70484 | -59.94146 | 33157 ft | 543 kts | 43° |
| 2026-04-30 11:20 | 51.76054 | -59.86016 | 33152 ft | 544 kts | 43° |
| 2026-04-30 11:21 | 51.81633 | -59.77843 | 33144 ft | 544 kts | 43° |
| 2026-04-30 11:21 | 51.87215 | -59.69638 | 33151 ft | 544 kts | 43° |
| 2026-04-30 11:22 | 51.92808 | -59.61389 | 33148 ft | 544 kts | 43° |
| 2026-04-30 11:22 | 51.98393 | -59.53121 | 33149 ft | 545 kts | 43° |
| 2026-04-30 11:23 | 52.03981 | -59.44820 | 33150 ft | 546 kts | 43° |
| 2026-04-30 11:24 | 52.12358 | -59.32320 | 33148 ft | 547 kts | 44° |
| 2026-04-30 11:24 | 52.17944 | -59.23949 | 33150 ft | 547 kts | 43° |
| 2026-04-30 11:25 | 52.26330 | -59.11322 | 33147 ft | 548 kts | 43° |
| 2026-04-30 11:26 | 52.37132 | -58.93858 | 33132 ft | 548 kts | 46° |
| 2026-04-30 11:26 | 52.42452 | -58.85007 | 33131 ft | 549 kts | 45° |
| 2026-04-30 11:27 | 52.47877 | -58.76326 | 33124 ft | 549 kts | 44° |
| 2026-04-30 11:27 | 52.53454 | -58.67705 | 33123 ft | 550 kts | 43° |
| 2026-04-30 11:28 | 52.61796 | -58.54849 | 33123 ft | 550 kts | 43° |
| 2026-04-30 11:29 | 52.67342 | -58.46243 | 33128 ft | 550 kts | 43° |
| 2026-04-30 11:29 | 52.75661 | -58.33310 | 33124 ft | 550 kts | 44° |
| 2026-04-30 11:30 | 52.83970 | -58.20409 | 33119 ft | 549 kts | 44° |
| 2026-04-30 11:31 | 52.89508 | -58.11800 | 33115 ft | 549 kts | 44° |
| 2026-04-30 11:31 | 52.95039 | -58.03154 | 33110 ft | 549 kts | 44° |
| 2026-04-30 11:32 | 53.00579 | -57.94434 | 33110 ft | 550 kts | 44° |
| 2026-04-30 11:32 | 53.06105 | -57.85670 | 33122 ft | 550 kts | 44° |
| 2026-04-30 11:33 | 53.14348 | -57.72510 | 33108 ft | 551 kts | 44° |
| 2026-04-30 11:33 | 53.19849 | -57.63682 | 33125 ft | 551 kts | 44° |
| 2026-04-30 11:34 | 53.25353 | -57.54817 | 33116 ft | 552 kts | 44° |
| 2026-04-30 11:34 | 53.30834 | -57.45957 | 33117 ft | 552 kts | 44° |
| 2026-04-30 11:35 | 53.36333 | -57.37033 | 33118 ft | 552 kts | 44° |
| 2026-04-30 11:35 | 53.41847 | -57.28052 | 33112 ft | 553 kts | 45° |
| 2026-04-30 11:36 | 53.47042 | -57.18658 | 33119 ft | 550 kts | 56° |
| 2026-04-30 11:36 | 53.50990 | -57.07829 | 33113 ft | 548 kts | 64° |
| 2026-04-30 11:37 | 53.54535 | -56.96489 | 33111 ft | 548 kts | 64° |
| 2026-04-30 11:37 | 53.58080 | -56.85212 | 33112 ft | 549 kts | 64° |
| 2026-04-30 11:38 | 53.61691 | -56.73942 | 33108 ft | 550 kts | 63° |
| 2026-04-30 11:38 | 53.65336 | -56.62597 | 33116 ft | 550 kts | 63° |
| 2026-04-30 11:39 | 53.68938 | -56.51335 | 33128 ft | 549 kts | 63° |
| 2026-04-30 11:39 | 53.72537 | -56.40013 | 33131 ft | 549 kts | 63° |
| 2026-04-30 11:40 | 53.76147 | -56.28601 | 33125 ft | 549 kts | 64° |
| 2026-04-30 11:40 | 53.79722 | -56.17250 | 33138 ft | 549 kts | 64° |
| 2026-04-30 11:41 | 53.83279 | -56.05899 | 33126 ft | 550 kts | 64° |
| 2026-04-30 11:41 | 53.86852 | -55.94444 | 33136 ft | 550 kts | 64° |
| 2026-04-30 11:42 | 53.90388 | -55.83052 | 33141 ft | 550 kts | 64° |
| 2026-04-30 11:42 | 53.93938 | -55.71559 | 33142 ft | 551 kts | 64° |
| 2026-04-30 11:43 | 53.97461 | -55.60103 | 33130 ft | 551 kts | 64° |
| 2026-04-30 11:43 | 54.00991 | -55.48570 | 33132 ft | 550 kts | 64° |
| 2026-04-30 11:44 | 54.04506 | -55.37026 | 33147 ft | 550 kts | 64° |
| 2026-04-30 11:44 | 54.08004 | -55.25483 | 33146 ft | 550 kts | 64° |
| 2026-04-30 11:45 | 54.11497 | -55.13903 | 33134 ft | 550 kts | 64° |
| 2026-04-30 11:45 | 54.14966 | -55.02345 | 33147 ft | 550 kts | 64° |
| 2026-04-30 11:46 | 54.18422 | -54.90770 | 33138 ft | 550 kts | 64° |
| 2026-04-30 11:46 | 54.21860 | -54.79203 | 33144 ft | 550 kts | 64° |
| 2026-04-30 11:47 | 54.25313 | -54.67534 | 33138 ft | 550 kts | 64° |
| 2026-04-30 11:47 | 54.28736 | -54.55914 | 33146 ft | 550 kts | 64° |
| 2026-04-30 11:48 | 54.32171 | -54.44196 | 33142 ft | 551 kts | 64° |
| 2026-04-30 11:48 | 54.35600 | -54.32438 | 33143 ft | 551 kts | 65° |
| 2026-04-30 11:49 | 54.38980 | -54.20792 | 33151 ft | 551 kts | 65° |
| 2026-04-30 11:49 | 54.42382 | -54.09007 | 33153 ft | 550 kts | 65° |
| 2026-04-30 11:50 | 54.45750 | -53.97282 | 33151 ft | 550 kts | 65° |
| 2026-04-30 11:50 | 54.49118 | -53.85501 | 33158 ft | 549 kts | 65° |
| 2026-04-30 11:51 | 54.52474 | -53.73699 | 33158 ft | 550 kts | 65° |
| 2026-04-30 11:51 | 54.55807 | -53.61922 | 33150 ft | 551 kts | 65° |
| 2026-04-30 11:52 | 54.59138 | -53.50090 | 33150 ft | 551 kts | 65° |
| 2026-04-30 11:52 | 54.62460 | -53.38228 | 33150 ft | 551 kts | 65° |
| 2026-04-30 11:53 | 54.65780 | -53.26317 | 33187 ft | 550 kts | 66° |
| 2026-04-30 11:53 | 54.69059 | -53.14491 | 33292 ft | 548 kts | 66° |
| 2026-04-30 11:54 | 54.72320 | -53.02663 | 33374 ft | 546 kts | 65° |
| 2026-04-30 11:54 | 54.75569 | -52.90825 | 33456 ft | 546 kts | 65° |
| 2026-04-30 11:55 | 54.78796 | -52.79000 | 33582 ft | 544 kts | 65° |
| 2026-04-30 11:55 | 54.82004 | -52.67189 | 33765 ft | 542 kts | 65° |
| 2026-04-30 11:56 | 54.85194 | -52.55382 | 33952 ft | 541 kts | 65° |
| 2026-04-30 11:56 | 54.88366 | -52.43581 | 34140 ft | 539 kts | 65° |
| 2026-04-30 11:57 | 54.91519 | -52.31790 | 34308 ft | 538 kts | 66° |
| 2026-04-30 11:57 | 54.93086 | -52.25908 | 34411 ft | 538 kts | 66° |
| 2026-04-30 11:57 | 54.94647 | -52.20031 | 34487 ft | 537 kts | 66° |
| 2026-04-30 11:58 | 54.97749 | -52.08305 | 34673 ft | 535 kts | 66° |
| 2026-04-30 11:58 | 55.00831 | -51.96601 | 34870 ft | 534 kts | 66° |
| 2026-04-30 11:59 | 55.03891 | -51.84919 | 35069 ft | 533 kts | 66° |
| 2026-04-30 11:59 | 55.06947 | -51.73188 | 35161 ft | 534 kts | 66° |
| 2026-04-30 12:00 | 55.10007 | -51.61383 | 35171 ft | 536 kts | 66° |
| 2026-04-30 12:00 | 55.13059 | -51.49547 | 35183 ft | 538 kts | 66° |
| 2026-04-30 12:01 | 55.16130 | -51.37569 | 35167 ft | 540 kts | 66° |
| 2026-04-30 12:01 | 55.19181 | -51.25608 | 35175 ft | 540 kts | 68° |
| 2026-04-30 12:02 | 55.22219 | -51.13630 | 35179 ft | 541 kts | 68° |
| 2026-04-30 12:02 | 55.25251 | -51.01615 | 35184 ft | 543 kts | 68° |
| 2026-04-30 12:03 | 55.29813 | -50.83409 | 35178 ft | 545 kts | 68° |
| 2026-04-30 12:04 | 55.32839 | -50.71251 | 35177 ft | 546 kts | 68° |
| 2026-04-30 12:04 | 55.35855 | -50.59066 | 35184 ft | 547 kts | 68° |
| 2026-04-30 12:05 | 55.38864 | -50.46842 | 35176 ft | 548 kts | 68° |
| 2026-04-30 12:05 | 55.41873 | -50.34549 | 35187 ft | 548 kts | 69° |
| 2026-04-30 12:06 | 55.44857 | -50.22290 | 35179 ft | 548 kts | 69° |
| 2026-04-30 12:06 | 55.47848 | -50.09929 | 35192 ft | 549 kts | 69° |
| 2026-04-30 12:07 | 55.50617 | -49.97414 | 35183 ft | 545 kts | 75° |
| 2026-04-30 12:07 | 55.52547 | -49.84571 | 35169 ft | 544 kts | 79° |
| 2026-04-30 12:08 | 55.54283 | -49.71614 | 35166 ft | 545 kts | 79° |
| 2026-04-30 12:08 | 55.56061 | -49.58637 | 35171 ft | 545 kts | 78° |
| 2026-04-30 12:09 | 55.57860 | -49.45714 | 35170 ft | 546 kts | 78° |
| 2026-04-30 12:09 | 55.59668 | -49.32688 | 35170 ft | 547 kts | 79° |
| 2026-04-30 12:10 | 55.61458 | -49.19674 | 35183 ft | 547 kts | 79° |
| 2026-04-30 12:10 | 55.63242 | -49.06575 | 35182 ft | 548 kts | 79° |
| 2026-04-30 12:11 | 55.65003 | -48.93528 | 35181 ft | 549 kts | 79° |
| 2026-04-30 12:11 | 55.66756 | -48.80416 | 35180 ft | 549 kts | 79° |
| 2026-04-30 12:12 | 55.68499 | -48.67273 | 35180 ft | 550 kts | 79° |
| 2026-04-30 12:12 | 55.70225 | -48.54136 | 35175 ft | 551 kts | 79° |
| 2026-04-30 12:13 | 55.71951 | -48.40889 | 35177 ft | 551 kts | 79° |
| 2026-04-30 12:13 | 55.73652 | -48.27708 | 35184 ft | 551 kts | 80° |
| 2026-04-30 12:14 | 55.75334 | -48.14557 | 35183 ft | 551 kts | 80° |
| 2026-04-30 12:14 | 55.77010 | -48.01321 | 35189 ft | 551 kts | 80° |
| 2026-04-30 12:15 | 55.78679 | -47.88027 | 35188 ft | 551 kts | 80° |
| 2026-04-30 12:15 | 55.80326 | -47.74772 | 35192 ft | 551 kts | 80° |
| 2026-04-30 12:16 | 55.81953 | -47.61548 | 35192 ft | 551 kts | 79° |
| 2026-04-30 12:16 | 55.83579 | -47.48214 | 35193 ft | 551 kts | 79° |
| 2026-04-30 12:17 | 55.85982 | -47.28276 | 35195 ft | 551 kts | 81° |
| 2026-04-30 12:17 | 55.87562 | -47.14995 | 35199 ft | 552 kts | 81° |
| 2026-04-30 12:18 | 55.89140 | -47.01597 | 35201 ft | 552 kts | 81° |
| 2026-04-30 12:18 | 55.90694 | -46.88276 | 35200 ft | 553 kts | 80° |
| 2026-04-30 12:19 | 55.92236 | -46.74923 | 35199 ft | 553 kts | 81° |
| 2026-04-30 12:19 | 55.93761 | -46.61580 | 35200 ft | 553 kts | 81° |
| 2026-04-30 12:20 | 55.95283 | -46.48118 | 35203 ft | 553 kts | 81° |
| 2026-04-30 12:20 | 55.96773 | -46.34801 | 35206 ft | 553 kts | 81° |
| 2026-04-30 12:21 | 55.98266 | -46.21325 | 35206 ft | 553 kts | 81° |
| 2026-04-30 12:21 | 55.99748 | -46.07805 | 35205 ft | 553 kts | 81° |
| 2026-04-30 12:22 | 56.01198 | -45.94432 | 35209 ft | 553 kts | 81° |
| 2026-04-30 12:22 | 56.02646 | -45.80929 | 35210 ft | 553 kts | 81° |
| 2026-04-30 12:23 | 56.04077 | -45.67443 | 35215 ft | 552 kts | 81° |
| 2026-04-30 12:23 | 56.05489 | -45.53985 | 35211 ft | 552 kts | 81° |
| 2026-04-30 12:24 | 56.06884 | -45.40529 | 35205 ft | 552 kts | 81° |
| 2026-04-30 12:24 | 56.08270 | -45.27018 | 35201 ft | 552 kts | 82° |
| 2026-04-30 12:25 | 56.09628 | -45.13625 | 35208 ft | 552 kts | 82° |
| 2026-04-30 12:25 | 56.10983 | -45.00122 | 35206 ft | 551 kts | 82° |
| 2026-04-30 12:26 | 56.12315 | -44.86666 | 35208 ft | 551 kts | 82° |
| 2026-04-30 12:26 | 56.13637 | -44.73169 | 35209 ft | 551 kts | 81° |
| 2026-04-30 12:27 | 56.14940 | -44.59710 | 35210 ft | 551 kts | 81° |
| 2026-04-30 12:27 | 56.16236 | -44.46159 | 35210 ft | 551 kts | 81° |
| 2026-04-30 12:28 | 56.17511 | -44.32657 | 35213 ft | 551 kts | 82° |
| 2026-04-30 12:28 | 56.18771 | -44.19154 | 35215 ft | 551 kts | 82° |
| 2026-04-30 12:29 | 56.20023 | -44.05576 | 35216 ft | 550 kts | 82° |
| 2026-04-30 12:29 | 56.21259 | -43.91986 | 35215 ft | 550 kts | 82° |
| 2026-04-30 12:30 | 56.22472 | -43.78492 | 35218 ft | 550 kts | 82° |
| 2026-04-30 12:30 | 56.23671 | -43.64977 | 35218 ft | 550 kts | 82° |
| 2026-04-30 12:31 | 56.24854 | -43.51456 | 35220 ft | 550 kts | 82° |
| 2026-04-30 12:31 | 56.26024 | -43.37915 | 35224 ft | 551 kts | 82° |
| 2026-04-30 12:32 | 56.27187 | -43.24291 | 35227 ft | 550 kts | 83° |
| 2026-04-30 12:32 | 56.28323 | -43.10778 | 35227 ft | 550 kts | 83° |
| 2026-04-30 12:33 | 56.29452 | -42.97172 | 35221 ft | 551 kts | 83° |
| 2026-04-30 12:33 | 56.30566 | -42.83563 | 35223 ft | 551 kts | 83° |
| 2026-04-30 12:34 | 56.31666 | -42.69920 | 35220 ft | 551 kts | 83° |
| 2026-04-30 12:34 | 56.32748 | -42.56324 | 35227 ft | 550 kts | 83° |
| 2026-04-30 12:35 | 56.33818 | -42.42664 | 35222 ft | 550 kts | 83° |
| 2026-04-30 12:35 | 56.34873 | -42.29017 | 35219 ft | 549 kts | 83° |
| 2026-04-30 12:36 | 56.35907 | -42.15427 | 35224 ft | 549 kts | 83° |
| 2026-04-30 12:36 | 56.36930 | -42.01786 | 35221 ft | 549 kts | 83° |
| 2026-04-30 12:37 | 56.37935 | -41.88176 | 35219 ft | 550 kts | 83° |
| 2026-04-30 12:37 | 56.38932 | -41.74464 | 35231 ft | 550 kts | 83° |
| 2026-04-30 12:38 | 56.39910 | -41.60784 | 35222 ft | 550 kts | 83° |
| 2026-04-30 12:38 | 56.40871 | -41.47138 | 35216 ft | 551 kts | 83° |
| 2026-04-30 12:39 | 56.41817 | -41.33495 | 35214 ft | 551 kts | 84° |
| 2026-04-30 12:39 | 56.42755 | -41.19740 | 35214 ft | 551 kts | 84° |
| 2026-04-30 12:40 | 56.43671 | -41.06063 | 35216 ft | 550 kts | 84° |
| 2026-04-30 12:40 | 56.44572 | -40.92377 | 35218 ft | 550 kts | 84° |
| 2026-04-30 12:41 | 56.45453 | -40.78773 | 35207 ft | 551 kts | 84° |
| 2026-04-30 12:41 | 56.46329 | -40.65007 | 35210 ft | 550 kts | 83° |
| 2026-04-30 12:42 | 56.47184 | -40.51320 | 35215 ft | 550 kts | 83° |
| 2026-04-30 12:42 | 56.48029 | -40.37549 | 35208 ft | 550 kts | 83° |
| 2026-04-30 12:43 | 56.48852 | -40.23889 | 35210 ft | 550 kts | 84° |
| 2026-04-30 12:43 | 56.49662 | -40.10174 | 35210 ft | 550 kts | 84° |
| 2026-04-30 12:44 | 56.50404 | -39.96421 | 35223 ft | 550 kts | 85° |
| 2026-04-30 12:44 | 56.50948 | -39.82608 | 35219 ft | 550 kts | 86° |
| 2026-04-30 12:45 | 56.51446 | -39.68900 | 35216 ft | 550 kts | 86° |
| 2026-04-30 12:45 | 56.51947 | -39.55151 | 35230 ft | 550 kts | 86° |
| 2026-04-30 12:46 | 56.52444 | -39.41365 | 35231 ft | 550 kts | 86° |
| 2026-04-30 12:46 | 56.52925 | -39.27646 | 35236 ft | 550 kts | 87° |
| 2026-04-30 12:47 | 56.53394 | -39.13782 | 35250 ft | 550 kts | 86° |
| 2026-04-30 12:47 | 56.53842 | -39.00087 | 35255 ft | 550 kts | 86° |
| 2026-04-30 12:48 | 56.54279 | -38.86303 | 35248 ft | 550 kts | 86° |
| 2026-04-30 12:48 | 56.54701 | -38.72461 | 35253 ft | 550 kts | 86° |
| 2026-04-30 12:49 | 56.55104 | -38.58722 | 35252 ft | 550 kts | 86° |
| 2026-04-30 12:49 | 56.55496 | -38.44858 | 35221 ft | 550 kts | 86° |
| 2026-04-30 12:50 | 56.55871 | -38.31066 | 35241 ft | 550 kts | 87° |
| 2026-04-30 12:50 | 56.56230 | -38.17302 | 35250 ft | 550 kts | 87° |
| 2026-04-30 12:51 | 56.56573 | -38.03490 | 35244 ft | 550 kts | 87° |
| 2026-04-30 12:51 | 56.56901 | -37.89741 | 35243 ft | 550 kts | 87° |
| 2026-04-30 12:52 | 56.57214 | -37.75930 | 35256 ft | 550 kts | 87° |
| 2026-04-30 12:52 | 56.57515 | -37.62054 | 35241 ft | 550 kts | 87° |
| 2026-04-30 12:53 | 56.57798 | -37.48227 | 35251 ft | 550 kts | 87° |
| 2026-04-30 12:53 | 56.58065 | -37.34390 | 35247 ft | 550 kts | 88° |
| 2026-04-30 12:54 | 56.58318 | -37.20568 | 35254 ft | 550 kts | 88° |
| 2026-04-30 12:54 | 56.58555 | -37.06693 | 35241 ft | 550 kts | 88° |
| 2026-04-30 12:55 | 56.58775 | -36.92951 | 35252 ft | 550 kts | 88° |
| 2026-04-30 12:55 | 56.58982 | -36.79121 | 35242 ft | 550 kts | 88° |
| 2026-04-30 12:56 | 56.59173 | -36.65258 | 35239 ft | 550 kts | 88° |
| 2026-04-30 12:56 | 56.59347 | -36.51494 | 35244 ft | 549 kts | 87° |
| 2026-04-30 12:57 | 56.59507 | -36.37694 | 35244 ft | 549 kts | 87° |
| 2026-04-30 12:57 | 56.59653 | -36.23854 | 35244 ft | 548 kts | 88° |
| 2026-04-30 12:58 | 56.59782 | -36.10107 | 35242 ft | 548 kts | 88° |
| 2026-04-30 12:58 | 56.59895 | -35.96342 | 35254 ft | 549 kts | 88° |
| 2026-04-30 12:59 | 56.59994 | -35.82507 | 35251 ft | 549 kts | 88° |
| 2026-04-30 12:59 | 56.60037 | -35.75564 | 35127 ft | 548 kts | 88° |
| 2026-04-30 12:59 | 56.60077 | -35.68641 | 35306 ft | 548 kts | 88° |
| 2026-04-30 13:00 | 56.60113 | -35.61776 | 35171 ft | 547 kts | 88° |
| 2026-04-30 13:00 | 56.60146 | -35.54870 | 35282 ft | 548 kts | 88° |
| 2026-04-30 13:00 | 56.60198 | -35.41062 | 35255 ft | 548 kts | 88° |
| 2026-04-30 13:01 | 56.60236 | -35.27255 | 35244 ft | 548 kts | 89° |
| 2026-04-30 13:01 | 56.60258 | -35.13481 | 35254 ft | 547 kts | 89° |
| 2026-04-30 13:02 | 56.60264 | -34.99706 | 35254 ft | 547 kts | 89° |
| 2026-04-30 13:02 | 56.60256 | -34.85956 | 35252 ft | 546 kts | 89° |
| 2026-04-30 13:03 | 56.60233 | -34.72138 | 35260 ft | 546 kts | 89° |
| 2026-04-30 13:03 | 56.60194 | -34.58405 | 35258 ft | 545 kts | 89° |
| 2026-04-30 13:04 | 56.60140 | -34.44781 | 35266 ft | 545 kts | 88° |
| 2026-04-30 13:04 | 56.60071 | -34.30940 | 35274 ft | 544 kts | 89° |
| 2026-04-30 13:05 | 56.59987 | -34.17264 | 35270 ft | 545 kts | 89° |
| 2026-04-30 13:06 | 56.59833 | -33.96749 | 35262 ft | 543 kts | 89° |
| 2026-04-30 13:06 | 56.59712 | -33.83117 | 35286 ft | 543 kts | 89° |
| 2026-04-30 13:07 | 56.59576 | -33.69450 | 35283 ft | 544 kts | 89° |
| 2026-04-30 13:07 | 56.59425 | -33.55737 | 35280 ft | 544 kts | 89° |
| 2026-04-30 13:08 | 56.59257 | -33.42063 | 35278 ft | 544 kts | 89° |
| 2026-04-30 13:08 | 56.59076 | -33.28372 | 35281 ft | 543 kts | 90° |
| 2026-04-30 13:09 | 56.58881 | -33.14732 | 35278 ft | 543 kts | 90° |
| 2026-04-30 13:09 | 56.58669 | -33.01043 | 35288 ft | 544 kts | 90° |
| 2026-04-30 13:10 | 56.58443 | -32.87445 | 35209 ft | 541 kts | 89° |
| 2026-04-30 13:10 | 56.58202 | -32.73783 | 35276 ft | 541 kts | 89° |
| 2026-04-30 13:11 | 56.57948 | -32.60207 | 35278 ft | 542 kts | 89° |
| 2026-04-30 13:11 | 56.57677 | -32.46570 | 35280 ft | 542 kts | 89° |
| 2026-04-30 13:12 | 56.57392 | -32.32967 | 35277 ft | 543 kts | 90° |
| 2026-04-30 13:12 | 56.57092 | -32.19367 | 35284 ft | 542 kts | 90° |
| 2026-04-30 13:13 | 56.56613 | -31.98918 | 35279 ft | 542 kts | 90° |
| 2026-04-30 13:14 | 56.56102 | -31.78533 | 35280 ft | 541 kts | 90° |
| 2026-04-30 13:14 | 56.55560 | -31.58217 | 35281 ft | 541 kts | 90° |
| 2026-04-30 13:15 | 56.54984 | -31.37883 | 35288 ft | 541 kts | 89° |
| 2026-04-30 13:16 | 56.54579 | -31.24246 | 35287 ft | 540 kts | 90° |
| 2026-04-30 13:16 | 56.54164 | -31.10790 | 35293 ft | 540 kts | 90° |
| 2026-04-30 13:17 | 56.53512 | -30.90526 | 35293 ft | 540 kts | 90° |
| 2026-04-30 13:18 | 56.52825 | -30.70212 | 35298 ft | 539 kts | 90° |
| 2026-04-30 13:18 | 56.52108 | -30.49975 | 35301 ft | 539 kts | 90° |
| 2026-04-30 13:19 | 56.51608 | -30.36411 | 35299 ft | 539 kts | 90° |
| 2026-04-30 13:19 | 56.51097 | -30.22948 | 35299 ft | 538 kts | 91° |
| 2026-04-30 13:20 | 56.50571 | -30.09456 | 35299 ft | 538 kts | 91° |
| 2026-04-30 13:20 | 56.49957 | -29.96044 | 35287 ft | 539 kts | 92° |
| 2026-04-30 13:21 | 56.49159 | -29.82573 | 35289 ft | 539 kts | 93° |
| 2026-04-30 13:22 | 56.47922 | -29.62490 | 35302 ft | 538 kts | 92° |
| 2026-04-30 13:22 | 56.46680 | -29.42375 | 35300 ft | 538 kts | 92° |
| 2026-04-30 13:23 | 56.45406 | -29.22241 | 35299 ft | 538 kts | 93° |
| 2026-04-30 13:24 | 56.43661 | -28.95518 | 35296 ft | 537 kts | 93° |
| 2026-04-30 13:25 | 56.41861 | -28.68842 | 35300 ft | 536 kts | 93° |
| 2026-04-30 13:26 | 56.39534 | -28.35580 | 35299 ft | 536 kts | 93° |
| 2026-04-30 13:28 | 56.37128 | -28.02499 | 35299 ft | 535 kts | 94° |
| 2026-04-30 13:28 | 56.35637 | -27.82608 | 35304 ft | 534 kts | 94° |
| 2026-04-30 13:29 | 56.33610 | -27.56232 | 35305 ft | 533 kts | 93° |
| 2026-04-30 13:31 | 56.30998 | -27.23313 | 35302 ft | 532 kts | 94° |
| 2026-04-30 13:32 | 56.28310 | -26.90585 | 35305 ft | 531 kts | 94° |
| 2026-04-30 13:33 | 56.26094 | -26.64396 | 35357 ft | 529 kts | 94° |
| 2026-04-30 13:34 | 56.24409 | -26.44915 | 35423 ft | 528 kts | 94° |
| 2026-04-30 13:35 | 56.22120 | -26.19034 | 35533 ft | 526 kts | 95° |
| 2026-04-30 13:36 | 56.19776 | -25.93169 | 35659 ft | 526 kts | 95° |
| 2026-04-30 13:36 | 56.17988 | -25.73855 | 35738 ft | 525 kts | 95° |
| 2026-04-30 13:37 | 56.16171 | -25.54576 | 35824 ft | 523 kts | 95° |
| 2026-04-30 13:38 | 56.14331 | -25.35375 | 35897 ft | 522 kts | 95° |
| 2026-04-30 13:39 | 56.11843 | -25.09930 | 36009 ft | 521 kts | 96° |
| 2026-04-30 13:40 | 56.09940 | -24.90829 | 36076 ft | 520 kts | 96° |
| 2026-04-30 13:40 | 56.08653 | -24.78099 | 36122 ft | 519 kts | 96° |
| 2026-04-30 13:41 | 56.07368 | -24.65515 | 36176 ft | 519 kts | 96° |
| 2026-04-30 13:41 | 56.06055 | -24.52796 | 36230 ft | 518 kts | 96° |
| 2026-04-30 13:42 | 56.04743 | -24.40228 | 36280 ft | 517 kts | 96° |
| 2026-04-30 13:42 | 56.02748 | -24.21344 | 36352 ft | 517 kts | 97° |
| 2026-04-30 13:43 | 56.01402 | -24.08771 | 36408 ft | 517 kts | 97° |
| 2026-04-30 13:43 | 56.00048 | -23.96250 | 36461 ft | 516 kts | 97° |
| 2026-04-30 13:44 | 55.98680 | -23.83734 | 36522 ft | 516 kts | 97° |
| 2026-04-30 13:44 | 55.97295 | -23.71183 | 36562 ft | 515 kts | 97° |
| 2026-04-30 13:45 | 55.95202 | -23.52448 | 36641 ft | 514 kts | 97° |
| 2026-04-30 13:46 | 55.93802 | -23.40055 | 36668 ft | 513 kts | 97° |
| 2026-04-30 13:46 | 55.92384 | -23.27632 | 36708 ft | 513 kts | 98° |
| 2026-04-30 13:47 | 55.90953 | -23.15221 | 36752 ft | 512 kts | 98° |
| 2026-04-30 13:47 | 55.89513 | -23.02845 | 36785 ft | 512 kts | 98° |
| 2026-04-30 13:48 | 55.88055 | -22.90424 | 36838 ft | 512 kts | 98° |
| 2026-04-30 13:48 | 55.86592 | -22.78082 | 36894 ft | 511 kts | 98° |
| 2026-04-30 13:49 | 55.85119 | -22.65759 | 36963 ft | 511 kts | 98° |
| 2026-04-30 13:49 | 55.83635 | -22.53465 | 37025 ft | 510 kts | 99° |
| 2026-04-30 13:50 | 55.82141 | -22.41204 | 37076 ft | 510 kts | 99° |
| 2026-04-30 13:50 | 55.79883 | -22.22868 | 37196 ft | 508 kts | 100° |
| 2026-04-30 13:51 | 55.78365 | -22.10668 | 37263 ft | 508 kts | 100° |
| 2026-04-30 13:51 | 55.76826 | -21.98411 | 37271 ft | 509 kts | 100° |
| 2026-04-30 13:52 | 55.75280 | -21.86219 | 37261 ft | 509 kts | 100° |
| 2026-04-30 13:52 | 55.73717 | -21.73984 | 37261 ft | 510 kts | 100° |
| 2026-04-30 13:53 | 55.72144 | -21.61778 | 37254 ft | 510 kts | 100° |
| 2026-04-30 13:53 | 55.70812 | -21.51522 | 37254 ft | 511 kts | 100° |
| 2026-04-30 13:54 | 55.68942 | -21.37253 | 37255 ft | 511 kts | 100° |
| 2026-04-30 13:54 | 55.67324 | -21.25009 | 37254 ft | 512 kts | 102° |
| 2026-04-30 13:55 | 55.65695 | -21.12789 | 37252 ft | 512 kts | 102° |
| 2026-04-30 13:55 | 55.64058 | -21.00612 | 37252 ft | 512 kts | 102° |
| 2026-04-30 13:56 | 55.62412 | -20.88463 | 37251 ft | 512 kts | 102° |
| 2026-04-30 13:56 | 55.60735 | -20.76189 | 37248 ft | 512 kts | 102° |
| 2026-04-30 13:57 | 55.59059 | -20.64018 | 37248 ft | 512 kts | 102° |
| 2026-04-30 13:57 | 55.57360 | -20.51779 | 37239 ft | 512 kts | 102° |
| 2026-04-30 13:58 | 55.54803 | -20.33545 | 37236 ft | 512 kts | 103° |
| 2026-04-30 13:59 | 55.53070 | -20.21310 | 37232 ft | 512 kts | 103° |
| 2026-04-30 13:59 | 55.51340 | -20.09191 | 37228 ft | 512 kts | 103° |
| 2026-04-30 14:00 | 55.49459 | -19.97116 | 37230 ft | 512 kts | 106° |
| 2026-04-30 14:00 | 55.46273 | -19.79233 | 37234 ft | 511 kts | 107° |
| 2026-04-30 14:01 | 55.44137 | -19.67332 | 37231 ft | 511 kts | 107° |
| 2026-04-30 14:01 | 55.42007 | -19.55453 | 37229 ft | 511 kts | 107° |
| 2026-04-30 14:02 | 55.39875 | -19.43613 | 37226 ft | 511 kts | 107° |
| 2026-04-30 14:02 | 55.37727 | -19.31758 | 37228 ft | 511 kts | 108° |
| 2026-04-30 14:03 | 55.35566 | -19.19908 | 37229 ft | 511 kts | 108° |
| 2026-04-30 14:03 | 55.33394 | -19.08072 | 37224 ft | 510 kts | 108° |
| 2026-04-30 14:04 | 55.31222 | -18.96317 | 37212 ft | 509 kts | 108° |
| 2026-04-30 14:04 | 55.29041 | -18.84586 | 37210 ft | 508 kts | 108° |
| 2026-04-30 14:05 | 55.26839 | -18.72813 | 37205 ft | 508 kts | 108° |
| 2026-04-30 14:05 | 55.24642 | -18.61144 | 37200 ft | 508 kts | 108° |
| 2026-04-30 14:06 | 55.21293 | -18.43487 | 37200 ft | 508 kts | 109° |
| 2026-04-30 14:07 | 55.17931 | -18.25926 | 37194 ft | 508 kts | 109° |
| 2026-04-30 14:08 | 55.14563 | -18.08499 | 37185 ft | 507 kts | 110° |
| 2026-04-30 14:08 | 55.11158 | -17.91031 | 37181 ft | 507 kts | 110° |
| 2026-04-30 14:09 | 55.08876 | -17.79415 | 37177 ft | 506 kts | 110° |
| 2026-04-30 14:10 | 55.05447 | -17.62094 | 37170 ft | 505 kts | 109° |
| 2026-04-30 14:10 | 55.03151 | -17.50579 | 37169 ft | 504 kts | 109° |
| 2026-04-30 14:11 | 55.00847 | -17.39089 | 37167 ft | 503 kts | 109° |
| 2026-04-30 14:11 | 54.98536 | -17.27635 | 37166 ft | 503 kts | 110° |
| 2026-04-30 14:12 | 54.96213 | -17.16184 | 37165 ft | 503 kts | 110° |
| 2026-04-30 14:12 | 54.93879 | -17.04749 | 37159 ft | 502 kts | 110° |
| 2026-04-30 14:13 | 54.91543 | -16.93364 | 37148 ft | 501 kts | 110° |
| 2026-04-30 14:13 | 54.89206 | -16.82040 | 37149 ft | 500 kts | 110° |
| 2026-04-30 14:14 | 54.86845 | -16.70664 | 37150 ft | 499 kts | 110° |
| 2026-04-30 14:14 | 54.84506 | -16.59461 | 37149 ft | 498 kts | 111° |
| 2026-04-30 14:15 | 54.82130 | -16.48146 | 37148 ft | 498 kts | 111° |
| 2026-04-30 14:15 | 54.79774 | -16.36985 | 37147 ft | 498 kts | 111° |
| 2026-04-30 14:16 | 54.77381 | -16.25716 | 37145 ft | 497 kts | 111° |
| 2026-04-30 14:16 | 54.74999 | -16.14548 | 37144 ft | 496 kts | 111° |
| 2026-04-30 14:17 | 54.72615 | -16.03441 | 37146 ft | 495 kts | 112° |
| 2026-04-30 14:17 | 54.70224 | -15.92365 | 37142 ft | 494 kts | 112° |
| 2026-04-30 14:18 | 54.67820 | -15.81282 | 37139 ft | 493 kts | 112° |
| 2026-04-30 14:18 | 54.64223 | -15.64815 | 37134 ft | 492 kts | 112° |
| 2026-04-30 14:19 | 54.60591 | -15.48317 | 37128 ft | 491 kts | 112° |
| 2026-04-30 14:20 | 54.58166 | -15.37374 | 37124 ft | 491 kts | 112° |
| 2026-04-30 14:20 | 54.54512 | -15.20994 | 37119 ft | 490 kts | 113° |
| 2026-04-30 14:21 | 54.52056 | -15.10051 | 37115 ft | 489 kts | 112° |
| 2026-04-30 14:21 | 54.50721 | -14.98720 | 37116 ft | 492 kts | 95° |
| 2026-04-30 14:22 | 54.50609 | -14.92779 | 37113 ft | 493 kts | 92° |
| 2026-04-30 14:22 | 54.50732 | -14.75154 | 37107 ft | 494 kts | 91° |
| 2026-04-30 14:23 | 54.50813 | -14.51645 | 37103 ft | 493 kts | 92° |
| 2026-04-30 14:24 | 54.50801 | -14.34010 | 37099 ft | 493 kts | 93° |
| 2026-04-30 14:25 | 54.50747 | -14.10535 | 37102 ft | 492 kts | 93° |
| 2026-04-30 14:26 | 54.49999 | -13.93116 | 37101 ft | 488 kts | 100° |
| 2026-04-30 14:27 | 54.48578 | -13.75842 | 37100 ft | 487 kts | 100° |
| 2026-04-30 14:27 | 54.47649 | -13.64330 | 37100 ft | 487 kts | 100° |
| 2026-04-30 14:28 | 54.46275 | -13.47173 | 37093 ft | 486 kts | 100° |
| 2026-04-30 14:28 | 54.45343 | -13.35669 | 37095 ft | 486 kts | 100° |
| 2026-04-30 14:29 | 54.43616 | -13.14739 | 37095 ft | 485 kts | 101° |
| 2026-04-30 14:31 | 54.41042 | -12.84343 | 37088 ft | 484 kts | 101° |
| 2026-04-30 14:31 | 54.39560 | -12.67251 | 37088 ft | 483 kts | 101° |
| 2026-04-30 14:32 | 54.38058 | -12.50235 | 37091 ft | 483 kts | 101° |
| 2026-04-30 14:33 | 54.37045 | -12.38912 | 37090 ft | 483 kts | 101° |
| 2026-04-30 14:33 | 54.35508 | -12.21958 | 37089 ft | 481 kts | 102° |
| 2026-04-30 14:34 | 54.34472 | -12.10671 | 37094 ft | 481 kts | 102° |
| 2026-04-30 14:34 | 54.33419 | -11.99334 | 37092 ft | 480 kts | 102° |
| 2026-04-30 14:35 | 54.31834 | -11.82497 | 37089 ft | 480 kts | 102° |
| 2026-04-30 14:36 | 54.30762 | -11.71248 | 37091 ft | 480 kts | 102° |
| 2026-04-30 14:36 | 54.29675 | -11.59966 | 37087 ft | 480 kts | 102° |
| 2026-04-30 14:37 | 54.28584 | -11.48745 | 37087 ft | 480 kts | 102° |
| 2026-04-30 14:37 | 54.27487 | -11.37590 | 37085 ft | 480 kts | 102° |
| 2026-04-30 14:38 | 54.26371 | -11.26339 | 37077 ft | 480 kts | 103° |
| 2026-04-30 14:38 | 54.25254 | -11.15201 | 37077 ft | 479 kts | 103° |
| 2026-04-30 14:39 | 54.24124 | -11.04034 | 37083 ft | 479 kts | 103° |
| 2026-04-30 14:39 | 54.22983 | -10.92869 | 37070 ft | 479 kts | 103° |
| 2026-04-30 14:40 | 54.21248 | -10.76093 | 37078 ft | 480 kts | 103° |
| 2026-04-30 14:40 | 54.20079 | -10.64921 | 37077 ft | 480 kts | 103° |
| 2026-04-30 14:41 | 54.18904 | -10.53792 | 37080 ft | 480 kts | 103° |
| 2026-04-30 14:41 | 54.17714 | -10.42633 | 37074 ft | 480 kts | 103° |
| 2026-04-30 14:42 | 54.16510 | -10.31459 | 37071 ft | 480 kts | 104° |
| 2026-04-30 14:42 | 54.15426 | -10.20167 | 37080 ft | 482 kts | 103° |
| 2026-04-30 14:43 | 54.14010 | -10.09095 | 37075 ft | 479 kts | 107° |
| 2026-04-30 14:43 | 54.12487 | -9.98109 | 37073 ft | 480 kts | 105° |
| 2026-04-30 14:44 | 54.11134 | -9.86971 | 37070 ft | 480 kts | 104° |
| 2026-04-30 14:44 | 54.09873 | -9.75892 | 37073 ft | 480 kts | 104° |
| 2026-04-30 14:45 | 54.08615 | -9.64759 | 37065 ft | 480 kts | 104° |
| 2026-04-30 14:45 | 54.07352 | -9.53665 | 37070 ft | 480 kts | 104° |
| 2026-04-30 14:46 | 54.06077 | -9.42585 | 37065 ft | 479 kts | 104° |
| 2026-04-30 14:46 | 54.05001 | -9.33314 | 37074 ft | 479 kts | 105° |
| 2026-04-30 14:47 | 54.03486 | -9.20374 | 37077 ft | 479 kts | 105° |
| 2026-04-30 14:47 | 54.02185 | -9.09364 | 37076 ft | 478 kts | 105° |
| 2026-04-30 14:48 | 54.00869 | -8.98308 | 37083 ft | 478 kts | 105° |
| 2026-04-30 14:48 | 53.99549 | -8.87322 | 37079 ft | 478 kts | 105° |
| 2026-04-30 14:49 | 53.98208 | -8.76251 | 37078 ft | 477 kts | 105° |
| 2026-04-30 14:49 | 53.96866 | -8.65249 | 37085 ft | 478 kts | 105° |
| 2026-04-30 14:50 | 53.94829 | -8.48729 | 37095 ft | 479 kts | 105° |
| 2026-04-30 14:51 | 53.92814 | -8.32565 | 37090 ft | 479 kts | 106° |
| 2026-04-30 14:52 | 53.90696 | -8.15776 | 37080 ft | 479 kts | 106° |
| 2026-04-30 14:52 | 53.88596 | -7.99322 | 37080 ft | 480 kts | 105° |
| 2026-04-30 14:53 | 53.86465 | -7.82795 | 37094 ft | 481 kts | 105° |
| 2026-04-30 14:54 | 53.83580 | -7.60689 | 37098 ft | 481 kts | 105° |
| 2026-04-30 14:55 | 53.81395 | -7.44174 | 37102 ft | 481 kts | 105° |
| 2026-04-30 14:56 | 53.78424 | -7.22104 | 37098 ft | 481 kts | 107° |
| 2026-04-30 14:57 | 53.76162 | -7.05670 | 37101 ft | 482 kts | 107° |
| 2026-04-30 14:58 | 53.73085 | -6.83748 | 37103 ft | 482 kts | 106° |
| 2026-04-30 14:58 | 53.70753 | -6.67254 | 37123 ft | 482 kts | 106° |
| 2026-04-30 15:00 | 53.66859 | -6.39852 | 37125 ft | 482 kts | 106° |
| 2026-04-30 15:01 | 53.63710 | -6.18002 | 37132 ft | 482 kts | 107° |
| 2026-04-30 15:01 | 53.61327 | -6.01681 | 37144 ft | 482 kts | 107° |
| 2026-04-30 15:02 | 53.59711 | -5.90710 | 37144 ft | 482 kts | 107° |
| 2026-04-30 15:03 | 53.55648 | -5.63449 | 37130 ft | 482 kts | 107° |
| 2026-04-30 15:04 | 53.53154 | -5.35631 | 37131 ft | 489 kts | 94° |
| 2026-04-30 15:06 | 53.52533 | -5.07207 | 37127 ft | 489 kts | 96° |
| 2026-04-30 15:07 | 53.51782 | -4.84404 | 37128 ft | 490 kts | 96° |
| 2026-04-30 15:08 | 53.51038 | -4.61549 | 37126 ft | 490 kts | 96° |
| 2026-04-30 15:09 | 53.50058 | -4.33146 | 37132 ft | 490 kts | 97° |
| 2026-04-30 15:10 | 53.49225 | -4.10493 | 37141 ft | 490 kts | 96° |
| 2026-04-30 15:11 | 53.47155 | -3.88181 | 37141 ft | 483 kts | 111° |
| 2026-04-30 15:11 | 53.44922 | -3.77559 | 37144 ft | 483 kts | 112° |
| 2026-04-30 15:13 | 53.38806 | -3.51588 | 37144 ft | 479 kts | 118° |
| 2026-04-30 15:14 | 53.28677 | -3.16805 | 37158 ft | 479 kts | 118° |
| 2026-04-30 15:17 | 53.15533 | -2.72092 | 37169 ft | 477 kts | 118° |
| 2026-04-30 15:19 | 53.03535 | -2.33087 | 37176 ft | 470 kts | 130° |